createdAt,value
2018-07-22T00:00:25.565Z,19.15
2018-07-22T00:03:31.230Z,19.14
2018-07-22T00:06:36.762Z,19.11
2018-07-22T00:09:43.533Z,19.09
2018-07-22T00:12:50.345Z,19.06
2018-07-22T00:15:56.054Z,19.05
2018-07-22T00:19:00.945Z,19.03
2018-07-22T00:22:05.827Z,19.02
2018-07-22T00:25:11.407Z,19.01
2018-07-22T00:28:17.626Z,19.01
2018-07-22T00:31:23.638Z,18.99
2018-07-22T00:34:29.442Z,18.98
2018-07-22T00:37:34.374Z,18.96
2018-07-22T00:40:40.247Z,18.98
2018-07-22T00:43:45.306Z,18.97
2018-07-22T00:46:50.577Z,18.98
2018-07-22T00:49:56.429Z,18.96
2018-07-22T00:53:01.335Z,18.98
2018-07-22T00:56:06.580Z,18.97
2018-07-22T00:59:11.466Z,18.95
2018-07-22T01:02:16.372Z,18.94
2018-07-22T01:05:21.697Z,18.95
2018-07-22T01:08:26.626Z,18.93
2018-07-22T01:11:32.448Z,18.91
2018-07-22T01:14:37.870Z,18.91
2018-07-22T01:17:42.751Z,18.90
2018-07-22T01:20:48.791Z,18.87
2018-07-22T01:23:53.696Z,18.85
2018-07-22T01:26:59.506Z,18.84
2018-07-22T01:30:06.484Z,18.80
2018-07-22T01:33:12.110Z,18.79
2018-07-22T01:36:17.955Z,18.76
2018-07-22T01:39:22.829Z,18.74
2018-07-22T01:42:27.750Z,18.71
2018-07-22T01:45:33.534Z,18.68
2018-07-22T01:48:38.968Z,18.65
2018-07-22T01:51:43.872Z,18.62
2018-07-22T01:54:49.692Z,18.59
2018-07-22T01:57:54.561Z,18.57
2018-07-22T02:01:00.193Z,18.54
2018-07-22T02:04:05.543Z,18.51
2018-07-22T02:07:11.355Z,18.48
2018-07-22T02:10:16.270Z,18.44
2018-07-22T02:13:21.186Z,18.42
2018-07-22T02:16:26.975Z,18.38
2018-07-22T02:19:32.737Z,18.36
2018-07-22T02:22:38.550Z,18.32
2018-07-22T02:25:45.696Z,18.28
2018-07-22T02:28:50.858Z,18.25
2018-07-22T02:31:56.667Z,18.21
2018-07-22T02:35:02.567Z,18.19
2018-07-22T02:38:08.132Z,18.17
2018-07-22T02:41:14.063Z,18.17
2018-07-22T02:44:19.886Z,18.13
2018-07-22T02:47:24.783Z,18.11
2018-07-22T02:50:30.630Z,18.09
2018-07-22T02:53:35.512Z,18.07
2018-07-22T02:56:41.138Z,18.03
2018-07-22T02:59:46.032Z,18.00
2018-07-22T03:02:51.859Z,17.99
2018-07-22T03:05:57.156Z,17.97
2018-07-22T03:09:02.168Z,17.95
2018-07-22T03:12:07.428Z,17.95
2018-07-22T03:15:12.349Z,17.90
2018-07-22T03:18:17.572Z,17.89
2018-07-22T03:21:22.465Z,17.87
2018-07-22T03:24:27.380Z,17.85
2018-07-22T03:27:34.193Z,17.82
2018-07-22T03:30:39.690Z,17.82
2018-07-22T03:33:44.567Z,17.80
2018-07-22T03:36:51.735Z,17.76
2018-07-22T03:39:56.619Z,17.77
2018-07-22T03:43:01.513Z,17.74
2018-07-22T03:46:07.344Z,17.70
2018-07-22T03:49:12.763Z,17.69
2018-07-22T03:52:18.914Z,17.69
2018-07-22T03:55:23.795Z,17.66
2018-07-22T03:58:29.628Z,17.66
2018-07-22T04:01:35.971Z,17.64
2018-07-22T04:04:40.897Z,17.62
2018-07-22T04:07:45.787Z,17.63
2018-07-22T04:10:51.426Z,17.65
2018-07-22T04:13:56.323Z,17.64
2018-07-22T04:17:02.261Z,17.63
2018-07-22T04:20:07.490Z,17.62
2018-07-22T04:23:13.635Z,17.64
2018-07-22T04:26:19.420Z,17.67
2018-07-22T04:29:24.945Z,17.69
2018-07-22T04:32:30.745Z,17.71
2018-07-22T04:35:35.611Z,17.73
2018-07-22T04:38:40.535Z,17.73
2018-07-22T04:41:45.445Z,17.74
2018-07-22T04:44:51.319Z,17.75
2018-07-22T04:47:56.824Z,17.75
2018-07-22T04:51:02.715Z,17.78
2018-07-22T04:54:09.171Z,17.78
2018-07-22T04:57:16.167Z,17.79
2018-07-22T05:00:21.776Z,17.80
2018-07-22T05:03:27.912Z,17.82
2018-07-22T05:06:33.764Z,17.84
2018-07-22T05:09:38.682Z,17.86
2018-07-22T05:12:43.879Z,17.86
2018-07-22T05:15:51.062Z,17.89
2018-07-22T05:18:56.729Z,17.90
2018-07-22T05:22:01.616Z,17.93
2018-07-22T05:25:08.457Z,17.95
2018-07-22T05:28:14.032Z,17.99
2018-07-22T05:31:21.260Z,18.02
2018-07-22T05:34:27.016Z,18.05
2018-07-22T05:37:32.043Z,18.08
2018-07-22T05:40:37.971Z,18.12
2018-07-22T05:43:43.923Z,18.17
2018-07-22T05:46:49.475Z,18.20
2018-07-22T05:49:54.389Z,18.24
2018-07-22T05:52:59.477Z,18.31
2018-07-22T05:56:04.390Z,18.34
2018-07-22T05:59:10.215Z,18.40
2018-07-22T06:02:16.021Z,18.46
2018-07-22T06:05:21.441Z,18.53
2018-07-22T06:08:26.823Z,18.58
2018-07-22T06:11:31.733Z,18.64
2018-07-22T06:14:37.348Z,18.72
2018-07-22T06:17:42.277Z,18.77
2018-07-22T06:20:48.216Z,18.83
2018-07-22T06:23:53.768Z,18.90
2018-07-22T06:26:58.704Z,18.95
2018-07-22T06:30:03.848Z,19.01
2018-07-22T06:33:09.707Z,19.07
2018-07-22T06:36:15.271Z,19.13
2018-07-22T06:39:21.093Z,19.18
2018-07-22T06:42:25.979Z,19.24
2018-07-22T06:45:32.882Z,19.30
2018-07-22T06:48:37.912Z,19.37
2018-07-22T06:51:42.819Z,19.43
2018-07-22T06:54:47.991Z,19.51
2018-07-22T06:57:53.840Z,19.58
2018-07-22T07:01:00.160Z,19.65
2018-07-22T07:04:05.626Z,19.73
2018-07-22T07:07:12.757Z,19.80
2018-07-22T07:10:18.720Z,19.87
2018-07-22T07:13:23.628Z,19.95
2018-07-22T07:16:30.491Z,20.01
2018-07-22T07:19:35.393Z,20.08
2018-07-22T07:22:41.221Z,20.16
2018-07-22T07:25:47.032Z,20.25
2018-07-22T07:28:52.853Z,20.33
2018-07-22T07:31:58.854Z,20.41
2018-07-22T07:35:03.806Z,20.51
2018-07-22T07:38:09.067Z,20.61
2018-07-22T07:41:14.008Z,20.74
2018-07-22T07:44:20.086Z,20.84
2018-07-22T07:47:25.900Z,20.98
2018-07-22T07:50:31.308Z,21.11
2018-07-22T07:53:37.143Z,21.25
2018-07-22T07:56:43.047Z,21.38
2018-07-22T07:59:47.934Z,21.51
2018-07-22T08:02:53.868Z,21.64
2018-07-22T08:05:59.751Z,21.77
2018-07-22T08:09:07.128Z,21.89
2018-07-22T08:12:12.670Z,22.00
2018-07-22T08:15:18.337Z,22.11
2018-07-22T08:18:24.456Z,22.22
2018-07-22T08:21:29.345Z,22.31
2018-07-22T08:24:35.291Z,22.40
2018-07-22T08:27:40.184Z,22.47
2018-07-22T08:30:46.093Z,22.55
2018-07-22T08:33:50.976Z,22.64
2018-07-22T08:36:56.647Z,22.71
2018-07-22T08:40:02.831Z,22.78
2018-07-22T08:43:09.587Z,22.85
2018-07-22T08:46:15.174Z,22.96
2018-07-22T08:49:20.978Z,23.03
2018-07-22T08:52:26.814Z,23.09
2018-07-22T08:55:32.522Z,23.18
2018-07-22T08:58:39.237Z,23.28
2018-07-22T09:01:44.152Z,23.37
2018-07-22T09:04:50.155Z,23.46
2018-07-22T09:07:56.703Z,23.57
2018-07-22T09:11:01.980Z,23.68
2018-07-22T09:14:08.372Z,23.78
2018-07-22T09:17:13.251Z,23.88
2018-07-22T09:20:18.147Z,23.97
2018-07-22T09:23:23.015Z,24.08
2018-07-22T09:26:28.423Z,24.18
2018-07-22T09:29:33.307Z,24.27
2018-07-22T09:32:38.627Z,24.40
2018-07-22T09:35:44.297Z,24.49
2018-07-22T09:38:49.649Z,24.60
2018-07-22T09:41:55.148Z,24.71
2018-07-22T09:45:01.463Z,24.81
2018-07-22T09:48:06.374Z,24.92
2018-07-22T09:51:12.643Z,25.05
2018-07-22T09:54:17.889Z,25.17
2018-07-22T09:57:22.803Z,25.30
2018-07-22T10:00:33.374Z,25.43
2018-07-22T10:03:38.783Z,25.58
2018-07-22T10:06:45.239Z,25.71
2018-07-22T10:09:51.216Z,25.83
2018-07-22T10:12:57.062Z,25.97
2018-07-22T10:16:01.936Z,26.11
2018-07-22T10:19:06.840Z,26.13
2018-07-22T10:22:11.991Z,26.11
2018-07-22T10:25:17.363Z,26.08
2018-07-22T10:28:22.291Z,26.08
2018-07-22T10:31:27.188Z,26.09
2018-07-22T10:34:32.485Z,26.13
2018-07-22T10:37:38.347Z,26.18
2018-07-22T10:40:43.986Z,26.25
2018-07-22T10:43:49.994Z,26.31
2018-07-22T10:46:55.228Z,26.35
2018-07-22T10:50:00.468Z,26.40
2018-07-22T10:53:06.216Z,26.47
2018-07-22T10:56:12.072Z,26.53
2018-07-22T10:59:17.321Z,26.59
2018-07-22T11:02:22.980Z,26.65
2018-07-22T11:05:28.811Z,26.71
2018-07-22T11:08:34.654Z,26.78
2018-07-22T11:11:40.605Z,26.83
2018-07-22T11:14:46.171Z,26.89
2018-07-22T11:17:52.437Z,26.91
2018-07-22T11:20:58.742Z,26.97
2018-07-22T11:24:04.824Z,27.02
2018-07-22T11:27:09.716Z,27.06
2018-07-22T11:30:15.653Z,27.08
2018-07-22T11:33:20.519Z,27.12
2018-07-22T11:36:27.497Z,27.17
2018-07-22T11:39:33.202Z,27.19
2018-07-22T11:42:39.599Z,27.23
2018-07-22T11:45:46.319Z,27.26
2018-07-22T11:48:51.573Z,27.30
2018-07-22T11:51:57.784Z,27.33
2018-07-22T11:55:02.657Z,27.37
2018-07-22T11:58:07.689Z,27.40
2018-07-22T12:01:13.525Z,27.42
2018-07-22T12:04:18.391Z,27.43
2018-07-22T12:07:24.509Z,27.45
2018-07-22T12:10:29.813Z,27.47
2018-07-22T12:13:34.700Z,27.52
2018-07-22T12:16:40.492Z,27.55
2018-07-22T12:19:45.403Z,27.58
2018-07-22T12:22:50.787Z,27.64
2018-07-22T12:25:56.688Z,27.67
2018-07-22T12:29:02.578Z,27.70
2018-07-22T12:32:08.528Z,27.75
2018-07-22T12:35:14.137Z,27.76
2018-07-22T12:38:20.155Z,27.82
2018-07-22T12:41:26.076Z,27.86
2018-07-22T12:44:30.976Z,27.89
2018-07-22T12:47:36.587Z,27.93
2018-07-22T12:50:41.911Z,27.95
2018-07-22T12:53:47.688Z,27.99
2018-07-22T12:56:53.733Z,28.02
2018-07-22T12:59:58.599Z,28.04
2018-07-22T13:03:04.258Z,28.07
2018-07-22T13:06:10.556Z,28.10
2018-07-22T13:09:16.329Z,28.14
2018-07-22T13:12:21.299Z,28.17
2018-07-22T13:15:27.560Z,28.21
2018-07-22T13:18:34.308Z,28.26
2018-07-22T13:21:39.186Z,28.30
2018-07-22T13:24:44.985Z,28.34
2018-07-22T13:27:50.798Z,28.35
2018-07-22T13:30:56.674Z,28.36
2018-07-22T13:34:01.643Z,28.39
2018-07-22T13:37:07.134Z,28.40
2018-07-22T13:40:12.860Z,28.40
2018-07-22T13:43:17.739Z,28.42
2018-07-22T13:46:22.640Z,28.42
2018-07-22T13:49:28.448Z,28.43
2018-07-22T13:52:33.569Z,28.46
2018-07-22T13:55:38.460Z,28.49
2018-07-22T13:58:44.439Z,28.52
2018-07-22T14:01:50.221Z,28.54
2018-07-22T14:04:55.095Z,28.55
2018-07-22T14:08:00.880Z,28.51
2018-07-22T14:11:06.581Z,28.50
2018-07-22T14:14:12.417Z,28.50
2018-07-22T14:17:17.650Z,28.52
2018-07-22T14:20:22.547Z,28.51
2018-07-22T14:23:27.957Z,28.51
2018-07-22T14:26:33.467Z,28.53
2018-07-22T14:29:39.736Z,28.52
2018-07-22T14:32:44.617Z,28.50
2018-07-22T14:35:50.404Z,28.49
2018-07-22T14:38:55.620Z,28.44
2018-07-22T14:42:00.492Z,28.43
2018-07-22T14:45:07.792Z,28.43
2018-07-22T14:48:12.980Z,28.42
2018-07-22T14:51:19.095Z,28.42
2018-07-22T14:54:25.184Z,28.40
2018-07-22T14:57:30.583Z,28.41
2018-07-22T15:00:35.794Z,28.41
2018-07-22T15:03:41.350Z,28.44
2018-07-22T15:06:48.282Z,28.48
2018-07-22T15:09:54.088Z,28.47
2018-07-22T15:12:58.973Z,28.48
2018-07-22T15:16:04.944Z,28.52
2018-07-22T15:19:10.316Z,28.53
2018-07-22T15:22:15.495Z,28.55
2018-07-22T15:25:20.748Z,28.58
2018-07-22T15:28:26.450Z,28.59
2018-07-22T15:31:32.594Z,28.57
2018-07-22T15:34:38.149Z,28.54
2018-07-22T15:37:43.987Z,28.52
2018-07-22T15:40:50.586Z,28.50
2018-07-22T15:43:56.241Z,28.47
2018-07-22T15:47:01.432Z,28.44
2018-07-22T15:50:06.321Z,28.44
2018-07-22T15:53:13.937Z,28.38
2018-07-22T15:56:18.829Z,28.33
2018-07-22T15:59:24.657Z,28.28
2018-07-22T16:02:30.571Z,28.24
2018-07-22T16:05:36.067Z,28.17
2018-07-22T16:08:42.891Z,28.15
2018-07-22T16:11:47.756Z,28.08
2018-07-22T16:14:53.203Z,28.03
2018-07-22T16:17:58.433Z,27.96
2018-07-22T16:21:03.322Z,27.90
2018-07-22T16:24:08.208Z,27.83
2018-07-22T16:27:14.997Z,27.74
2018-07-22T16:30:21.007Z,27.68
2018-07-22T16:33:26.219Z,27.61
2018-07-22T16:36:31.125Z,27.51
2018-07-22T16:39:36.003Z,27.42
2018-07-22T16:42:41.431Z,27.33
2018-07-22T16:45:46.331Z,27.23
2018-07-22T16:48:52.106Z,27.11
2018-07-22T16:51:57.900Z,27.04
2018-07-22T16:55:02.793Z,26.95
2018-07-22T16:58:07.668Z,26.85
2018-07-22T17:01:12.617Z,26.77
2018-07-22T17:04:18.431Z,26.68
2018-07-22T17:07:24.320Z,26.59
2018-07-22T17:10:30.360Z,26.49
2018-07-22T17:13:36.273Z,26.35
2018-07-22T17:16:42.191Z,26.19
2018-07-22T17:19:47.399Z,26.13
2018-07-22T17:22:53.209Z,26.06
2018-07-22T17:25:59.184Z,26.00
2018-07-22T17:29:06.010Z,25.93
2018-07-22T17:32:11.689Z,25.83
2018-07-22T17:35:17.487Z,25.74
2018-07-22T17:38:22.888Z,25.66
2018-07-22T17:41:27.807Z,25.56
2018-07-22T17:44:34.517Z,25.48
2018-07-22T17:47:40.287Z,25.39
2018-07-22T17:50:47.096Z,25.31
2018-07-22T17:53:52.860Z,25.23
2018-07-22T17:56:59.703Z,25.14
2018-07-22T18:00:04.933Z,25.07
2018-07-22T18:03:21.268Z,24.99
2018-07-22T18:06:27.426Z,24.92
2018-07-22T18:09:32.611Z,24.83
2018-07-22T18:12:38.399Z,24.75
2018-07-22T18:15:44.832Z,24.67
2018-07-22T18:18:51.136Z,24.60
2018-07-22T18:21:57.806Z,24.54
2018-07-22T18:25:03.955Z,24.44
2018-07-22T18:28:10.814Z,24.38
2018-07-22T18:31:16.852Z,24.29
2018-07-22T18:34:22.199Z,24.20
2018-07-22T18:37:29.839Z,24.11
2018-07-22T18:40:37.359Z,24.02
2018-07-22T18:43:46.748Z,23.94
2018-07-22T18:46:53.432Z,23.86
2018-07-22T18:49:59.455Z,23.78
2018-07-22T18:53:06.244Z,23.67
2018-07-22T18:56:13.443Z,23.58
2018-07-22T18:59:19.316Z,23.49
2018-07-22T19:02:27.831Z,23.42
2018-07-22T19:05:33.040Z,23.34
2018-07-22T19:08:38.128Z,23.26
2018-07-22T19:11:43.345Z,23.17
2018-07-22T19:14:48.579Z,23.09
2018-07-22T19:17:55.960Z,23.02
2018-07-22T19:21:02.039Z,22.93
2018-07-22T19:24:08.480Z,22.84
2018-07-22T19:27:14.768Z,22.75
2018-07-22T19:30:20.684Z,22.68
2018-07-22T19:33:26.684Z,22.61
2018-07-22T19:36:33.552Z,22.52
2018-07-22T19:39:39.571Z,22.45
2018-07-22T19:42:46.165Z,22.37
2018-07-22T19:45:52.063Z,22.29
2018-07-22T19:48:58.065Z,22.22
2018-07-22T19:52:03.980Z,22.15
2018-07-22T19:55:10.046Z,22.07
2018-07-22T19:58:16.402Z,21.95
2018-07-22T20:01:23.635Z,21.83
2018-07-22T20:04:30.774Z,21.77
2018-07-22T20:07:36.337Z,21.73
2018-07-22T20:10:42.474Z,21.67
2018-07-22T20:13:48.383Z,21.63
2018-07-22T20:16:54.533Z,21.54
2018-07-22T20:20:01.479Z,21.45
2018-07-22T20:23:07.121Z,21.40
2018-07-22T20:26:14.380Z,21.34
2018-07-22T20:29:20.753Z,21.25
2018-07-22T20:32:26.909Z,21.18
2018-07-22T20:35:32.110Z,21.12
2018-07-22T20:38:37.286Z,21.04
2018-07-22T20:41:44.490Z,20.98
2018-07-22T20:44:50.607Z,20.89
2018-07-22T20:47:55.862Z,20.84
2018-07-22T20:51:01.272Z,20.76
2018-07-22T20:54:07.460Z,20.66
2018-07-22T20:57:12.666Z,20.62
2018-07-22T21:00:18.862Z,20.51
2018-07-22T21:03:24.486Z,20.44
2018-07-22T21:06:31.043Z,20.39
2018-07-22T21:09:37.131Z,20.29
2018-07-22T21:12:54.663Z,20.23
2018-07-22T21:15:59.610Z,20.17
2018-07-22T21:19:05.123Z,20.11
2018-07-22T21:22:11.335Z,20.03
2018-07-22T21:25:20.326Z,19.95
2018-07-22T21:28:37.677Z,19.89
2018-07-22T21:31:50.681Z,19.82
2018-07-22T21:35:05.447Z,19.76
2018-07-22T21:38:12.338Z,19.67
2018-07-22T21:41:18.415Z,19.58
2018-07-22T21:44:23.568Z,19.52
2018-07-22T21:47:42.288Z,19.47
2018-07-22T21:50:58.250Z,19.40
2018-07-22T21:54:05.495Z,19.32
2018-07-22T21:57:22.077Z,19.25
2018-07-22T22:00:38.389Z,19.22
2018-07-22T22:03:47.056Z,19.13
2018-07-22T22:07:02.829Z,19.11
2018-07-22T22:10:08.640Z,19.07
2018-07-22T22:13:14.335Z,18.99
2018-07-22T22:16:20.328Z,18.91
2018-07-22T22:19:26.505Z,18.85
2018-07-22T22:22:31.744Z,18.79
2018-07-22T22:25:36.884Z,18.76
2018-07-22T22:28:42.082Z,18.72
2018-07-22T22:31:49.111Z,18.68
2018-07-22T22:34:55.342Z,18.62
2018-07-22T22:38:00.851Z,18.53
2018-07-22T22:41:07.398Z,18.53
2018-07-22T22:44:13.179Z,18.46
2018-07-22T22:47:19.316Z,18.41
2018-07-22T22:50:24.458Z,18.37
2018-07-22T22:53:29.620Z,18.33
2018-07-22T22:56:34.811Z,18.27
2018-07-22T22:59:40.215Z,18.21
2018-07-22T23:02:46.442Z,18.22
2018-07-22T23:05:51.623Z,18.16
2018-07-22T23:08:57.731Z,18.13
2018-07-22T23:12:03.622Z,18.05
2018-07-22T23:15:08.804Z,18.01
2018-07-22T23:18:13.955Z,17.92
2018-07-22T23:21:19.442Z,17.90
2018-07-22T23:24:25.415Z,17.89
2018-07-22T23:27:31.547Z,17.81
2018-07-22T23:30:36.687Z,17.76
2018-07-22T23:33:41.906Z,17.75
2018-07-22T23:36:47.050Z,17.71
2018-07-22T23:39:52.551Z,17.68
2018-07-22T23:42:57.741Z,17.68
2018-07-22T23:46:02.918Z,17.61
2018-07-22T23:49:09.117Z,17.58
2018-07-22T23:52:15.935Z,17.56
2018-07-22T23:55:21.107Z,17.55
2018-07-22T23:58:27.283Z,17.50
